sensor_id;sensor_type;location;lat;lon;timestamp;P1;durP1;ratioP1;P2;durP2;ratioP2
14377;SDS011;7272;53.668;9.578;2024-01-10T00:02:22;14.53;;;11.43;;
14377;SDS011;7272;53.668;9.578;2024-01-10T00:05:24;15.83;;;11.87;;
14377;SDS011;7272;53.668;9.578;2024-01-10T00:08:25;28.83;;;15.30;;
14377;SDS011;7272;53.668;9.578;2024-01-10T00:11:26;16.33;;;11.87;;
14377;SDS011;7272;53.668;9.578;2024-01-10T00:14:28;18.73;;;12.33;;
14377;SDS011;7272;53.668;9.578;2024-01-10T00:17:30;16.03;;;11.63;;
14377;SDS011;7272;53.668;9.578;2024-01-10T00:20:31;27.90;;;13.93;;
14377;SDS011;7272;53.668;9.578;2024-01-10T00:23:32;20.70;;;12.03;;
14377;SDS011;7272;53.668;9.578;2024-01-10T00:26:33;16.20;;;10.27;;
14377;SDS011;7272;53.668;9.578;2024-01-10T00:29:35;15.63;;;9.73;;
14377;SDS011;7272;53.668;9.578;2024-01-10T00:32:37;15.90;;;10.77;;
14377;SDS011;7272;53.668;9.578;2024-01-10T00:35:38;16.00;;;11.27;;
14377;SDS011;7272;53.668;9.578;2024-01-10T00:38:39;14.13;;;10.30;;
14377;SDS011;7272;53.668;9.578;2024-01-10T00:41:40;13.63;;;9.33;;
14377;SDS011;7272;53.668;9.578;2024-01-10T00:44:42;14.87;;;10.57;;
14377;SDS011;7272;53.668;9.578;2024-01-10T00:47:44;15.23;;;10.43;;
14377;SDS011;7272;53.668;9.578;2024-01-10T00:50:45;14.50;;;10.60;;
14377;SDS011;7272;53.668;9.578;2024-01-10T00:53:46;12.03;;;9.27;;
14377;SDS011;7272;53.668;9.578;2024-01-10T00:56:47;15.53;;;9.73;;
14377;SDS011;7272;53.668;9.578;2024-01-10T00:59:51;19.60;;;11.60;;
14377;SDS011;7272;53.668;9.578;2024-01-10T01:02:52;14.93;;;10.20;;
14377;SDS011;7272;53.668;9.578;2024-01-10T01:05:53;17.57;;;9.90;;
14377;SDS011;7272;53.668;9.578;2024-01-10T01:08:55;14.80;;;9.70;;
14377;SDS011;7272;53.668;9.578;2024-01-10T01:11:56;13.57;;;10.07;;
14377;SDS011;7272;53.668;9.578;2024-01-10T01:14:58;18.87;;;11.37;;
14377;SDS011;7272;53.668;9.578;2024-01-10T01:18:00;12.90;;;9.87;;
14377;SDS011;7272;53.668;9.578;2024-01-10T01:21:01;12.53;;;9.40;;
14377;SDS011;7272;53.668;9.578;2024-01-10T01:24:03;17.53;;;10.07;;
14377;SDS011;7272;53.668;9.578;2024-01-10T01:27:05;11.70;;;9.73;;
14377;SDS011;7272;53.668;9.578;2024-01-10T01:30:07;15.80;;;10.87;;
14377;SDS011;7272;53.668;9.578;2024-01-10T01:33:11;13.67;;;9.77;;
14377;SDS011;7272;53.668;9.578;2024-01-10T01:36:13;19.13;;;10.97;;
14377;SDS011;7272;53.668;9.578;2024-01-10T01:39:14;16.40;;;11.90;;
14377;SDS011;7272;53.668;9.578;2024-01-10T01:42:15;22.70;;;13.27;;
14377;SDS011;7272;53.668;9.578;2024-01-10T01:45:17;21.03;;;12.90;;
14377;SDS011;7272;53.668;9.578;2024-01-10T01:48:18;25.73;;;12.37;;
14377;SDS011;7272;53.668;9.578;2024-01-10T01:51:20;14.07;;;10.80;;
14377;SDS011;7272;53.668;9.578;2024-01-10T01:54:23;12.83;;;9.80;;
14377;SDS011;7272;53.668;9.578;2024-01-10T01:57:24;11.20;;;9.20;;
14377;SDS011;7272;53.668;9.578;2024-01-10T02:00:27;19.80;;;12.07;;
14377;SDS011;7272;53.668;9.578;2024-01-10T02:03:28;16.00;;;11.63;;
14377;SDS011;7272;53.668;9.578;2024-01-10T02:06:31;19.77;;;12.30;;
14377;SDS011;7272;53.668;9.578;2024-01-10T02:09:32;15.20;;;11.27;;
14377;SDS011;7272;53.668;9.578;2024-01-10T02:12:33;14.00;;;10.10;;
14377;SDS011;7272;53.668;9.578;2024-01-10T02:15:36;13.47;;;8.63;;
14377;SDS011;7272;53.668;9.578;2024-01-10T02:18:40;13.70;;;9.63;;
14377;SDS011;7272;53.668;9.578;2024-01-10T02:21:41;14.63;;;10.67;;
14377;SDS011;7272;53.668;9.578;2024-01-10T02:24:42;11.73;;;9.13;;
14377;SDS011;7272;53.668;9.578;2024-01-10T02:27:44;17.27;;;10.17;;
14377;SDS011;7272;53.668;9.578;2024-01-10T02:30:45;12.33;;;8.80;;
14377;SDS011;7272;53.668;9.578;2024-01-10T02:33:47;14.40;;;10.27;;
14377;SDS011;7272;53.668;9.578;2024-01-10T02:36:48;12.07;;;8.80;;
14377;SDS011;7272;53.668;9.578;2024-01-10T02:39:49;11.90;;;8.37;;
14377;SDS011;7272;53.668;9.578;2024-01-10T02:42:52;12.67;;;8.60;;
14377;SDS011;7272;53.668;9.578;2024-01-10T02:45:53;9.83;;;7.67;;
14377;SDS011;7272;53.668;9.578;2024-01-10T02:48:54;9.50;;;8.30;;
14377;SDS011;7272;53.668;9.578;2024-01-10T02:51:55;10.60;;;9.03;;
14377;SDS011;7272;53.668;9.578;2024-01-10T02:54:57;11.43;;;8.90;;
14377;SDS011;7272;53.668;9.578;2024-01-10T02:57:59;14.93;;;10.30;;
14377;SDS011;7272;53.668;9.578;2024-01-10T03:01:00;16.07;;;11.07;;
14377;SDS011;7272;53.668;9.578;2024-01-10T03:04:01;14.07;;;8.90;;
14377;SDS011;7272;53.668;9.578;2024-01-10T03:07:03;13.57;;;9.10;;
14377;SDS011;7272;53.668;9.578;2024-01-10T03:10:04;11.90;;;9.30;;
14377;SDS011;7272;53.668;9.578;2024-01-10T03:13:06;14.10;;;9.37;;
14377;SDS011;7272;53.668;9.578;2024-01-10T03:16:08;13.67;;;10.50;;
14377;SDS011;7272;53.668;9.578;2024-01-10T03:19:09;16.37;;;11.27;;
14377;SDS011;7272;53.668;9.578;2024-01-10T03:22:11;15.50;;;11.00;;
14377;SDS011;7272;53.668;9.578;2024-01-10T03:25:13;13.90;;;10.00;;
14377;SDS011;7272;53.668;9.578;2024-01-10T03:28:15;15.80;;;10.40;;
14377;SDS011;7272;53.668;9.578;2024-01-10T03:31:17;12.67;;;9.07;;
14377;SDS011;7272;53.668;9.578;2024-01-10T03:34:19;14.77;;;10.07;;
14377;SDS011;7272;53.668;9.578;2024-01-10T03:37:20;15.60;;;10.07;;
14377;SDS011;7272;53.668;9.578;2024-01-10T03:40:21;14.80;;;9.57;;
14377;SDS011;7272;53.668;9.578;2024-01-10T03:43:23;12.53;;;9.63;;
14377;SDS011;7272;53.668;9.578;2024-01-10T03:46:24;12.23;;;8.40;;
14377;SDS011;7272;53.668;9.578;2024-01-10T03:49:25;18.33;;;11.53;;
14377;SDS011;7272;53.668;9.578;2024-01-10T03:52:26;16.30;;;12.10;;
14377;SDS011;7272;53.668;9.578;2024-01-10T03:55:27;21.67;;;13.20;;
14377;SDS011;7272;53.668;9.578;2024-01-10T03:58:30;14.03;;;10.50;;
14377;SDS011;7272;53.668;9.578;2024-01-10T04:01:31;14.50;;;11.93;;
14377;SDS011;7272;53.668;9.578;2024-01-10T04:04:35;16.23;;;11.27;;
14377;SDS011;7272;53.668;9.578;2024-01-10T04:07:39;18.67;;;11.83;;
14377;SDS011;7272;53.668;9.578;2024-01-10T04:10:41;16.43;;;11.37;;
14377;SDS011;7272;53.668;9.578;2024-01-10T04:13:43;17.80;;;12.13;;
14377;SDS011;7272;53.668;9.578;2024-01-10T04:16:45;21.00;;;13.97;;
14377;SDS011;7272;53.668;9.578;2024-01-10T04:19:46;17.00;;;11.53;;
14377;SDS011;7272;53.668;9.578;2024-01-10T04:22:47;14.37;;;10.97;;
14377;SDS011;7272;53.668;9.578;2024-01-10T04:25:48;15.80;;;10.93;;
14377;SDS011;7272;53.668;9.578;2024-01-10T04:28:50;13.77;;;10.13;;
14377;SDS011;7272;53.668;9.578;2024-01-10T04:31:51;16.13;;;12.03;;
14377;SDS011;7272;53.668;9.578;2024-01-10T04:34:52;11.67;;;8.67;;
14377;SDS011;7272;53.668;9.578;2024-01-10T04:37:54;13.93;;;10.27;;
14377;SDS011;7272;53.668;9.578;2024-01-10T04:40:55;14.83;;;10.07;;
14377;SDS011;7272;53.668;9.578;2024-01-10T04:43:57;13.23;;;9.93;;
14377;SDS011;7272;53.668;9.578;2024-01-10T04:46:58;14.20;;;9.83;;
14377;SDS011;7272;53.668;9.578;2024-01-10T04:49:59;11.73;;;9.53;;
14377;SDS011;7272;53.668;9.578;2024-01-10T04:53:01;11.03;;;8.63;;
14377;SDS011;7272;53.668;9.578;2024-01-10T04:56:02;10.90;;;8.83;;
14377;SDS011;7272;53.668;9.578;2024-01-10T04:59:04;10.23;;;8.60;;
14377;SDS011;7272;53.668;9.578;2024-01-10T05:02:05;12.90;;;10.37;;
14377;SDS011;7272;53.668;9.578;2024-01-10T05:05:07;9.80;;;7.40;;
14377;SDS011;7272;53.668;9.578;2024-01-10T05:08:08;10.77;;;8.77;;
14377;SDS011;7272;53.668;9.578;2024-01-10T05:11:09;12.53;;;9.73;;
14377;SDS011;7272;53.668;9.578;2024-01-10T05:14:11;13.77;;;10.67;;
14377;SDS011;7272;53.668;9.578;2024-01-10T05:17:13;11.77;;;9.73;;
14377;SDS011;7272;53.668;9.578;2024-01-10T05:20:14;11.00;;;8.77;;
14377;SDS011;7272;53.668;9.578;2024-01-10T05:23:16;9.60;;;8.00;;
14377;SDS011;7272;53.668;9.578;2024-01-10T05:26:17;9.00;;;7.87;;
14377;SDS011;7272;53.668;9.578;2024-01-10T05:29:19;10.17;;;8.67;;
14377;SDS011;7272;53.668;9.578;2024-01-10T05:32:22;10.23;;;8.43;;
14377;SDS011;7272;53.668;9.578;2024-01-10T05:35:23;8.83;;;7.10;;
14377;SDS011;7272;53.668;9.578;2024-01-10T05:38:26;10.60;;;8.63;;
14377;SDS011;7272;53.668;9.578;2024-01-10T05:41:27;9.73;;;8.53;;
14377;SDS011;7272;53.668;9.578;2024-01-10T05:44:30;9.53;;;8.53;;
14377;SDS011;7272;53.668;9.578;2024-01-10T05:47:32;10.27;;;9.00;;
14377;SDS011;7272;53.668;9.578;2024-01-10T05:50:35;9.03;;;8.07;;
14377;SDS011;7272;53.668;9.578;2024-01-10T05:53:37;12.67;;;10.20;;
14377;SDS011;7272;53.668;9.578;2024-01-10T05:56:38;13.47;;;10.30;;
14377;SDS011;7272;53.668;9.578;2024-01-10T05:59:40;12.10;;;9.43;;
14377;SDS011;7272;53.668;9.578;2024-01-10T06:02:41;14.13;;;10.67;;
14377;SDS011;7272;53.668;9.578;2024-01-10T06:05:43;12.57;;;9.20;;
14377;SDS011;7272;53.668;9.578;2024-01-10T06:08:44;15.13;;;10.40;;
14377;SDS011;7272;53.668;9.578;2024-01-10T06:11:46;12.70;;;9.60;;
14377;SDS011;7272;53.668;9.578;2024-01-10T06:14:47;11.37;;;8.40;;
14377;SDS011;7272;53.668;9.578;2024-01-10T06:17:49;10.93;;;9.03;;
14377;SDS011;7272;53.668;9.578;2024-01-10T06:20:50;11.33;;;8.67;;
14377;SDS011;7272;53.668;9.578;2024-01-10T06:23:51;8.53;;;7.70;;
14377;SDS011;7272;53.668;9.578;2024-01-10T06:26:53;10.53;;;8.00;;
14377;SDS011;7272;53.668;9.578;2024-01-10T06:29:55;11.13;;;8.53;;
14377;SDS011;7272;53.668;9.578;2024-01-10T06:32:56;8.93;;;7.83;;
14377;SDS011;7272;53.668;9.578;2024-01-10T06:35:57;8.70;;;7.40;;
14377;SDS011;7272;53.668;9.578;2024-01-10T06:38:59;8.70;;;7.80;;
14377;SDS011;7272;53.668;9.578;2024-01-10T06:42:00;9.67;;;7.93;;
14377;SDS011;7272;53.668;9.578;2024-01-10T06:45:05;8.40;;;7.03;;
14377;SDS011;7272;53.668;9.578;2024-01-10T06:48:08;9.63;;;7.20;;
14377;SDS011;7272;53.668;9.578;2024-01-10T06:51:09;8.03;;;7.20;;
14377;SDS011;7272;53.668;9.578;2024-01-10T06:54:12;10.57;;;8.30;;
14377;SDS011;7272;53.668;9.578;2024-01-10T06:57:14;10.57;;;8.60;;
14377;SDS011;7272;53.668;9.578;2024-01-10T07:00:17;10.10;;;8.80;;
14377;SDS011;7272;53.668;9.578;2024-01-10T07:03:18;11.13;;;9.13;;
14377;SDS011;7272;53.668;9.578;2024-01-10T07:06:19;10.50;;;8.93;;
14377;SDS011;7272;53.668;9.578;2024-01-10T07:09:21;14.67;;;10.83;;
14377;SDS011;7272;53.668;9.578;2024-01-10T07:12:22;14.27;;;9.90;;
14377;SDS011;7272;53.668;9.578;2024-01-10T07:15:24;9.70;;;8.13;;
14377;SDS011;7272;53.668;9.578;2024-01-10T07:18:25;11.50;;;9.60;;
14377;SDS011;7272;53.668;9.578;2024-01-10T07:21:26;10.27;;;8.07;;
14377;SDS011;7272;53.668;9.578;2024-01-10T07:24:27;11.07;;;8.53;;
14377;SDS011;7272;53.668;9.578;2024-01-10T07:27:29;9.77;;;7.77;;
14377;SDS011;7272;53.668;9.578;2024-01-10T07:30:30;10.27;;;7.93;;
14377;SDS011;7272;53.668;9.578;2024-01-10T07:33:33;11.33;;;8.33;;
14377;SDS011;7272;53.668;9.578;2024-01-10T07:36:41;10.20;;;8.27;;
14377;SDS011;7272;53.668;9.578;2024-01-10T07:39:43;11.13;;;8.53;;
14377;SDS011;7272;53.668;9.578;2024-01-10T07:42:44;11.03;;;9.07;;
14377;SDS011;7272;53.668;9.578;2024-01-10T07:45:46;11.47;;;8.40;;
14377;SDS011;7272;53.668;9.578;2024-01-10T07:48:47;10.63;;;8.53;;
14377;SDS011;7272;53.668;9.578;2024-01-10T07:51:48;8.90;;;7.97;;
14377;SDS011;7272;53.668;9.578;2024-01-10T07:54:49;11.77;;;9.17;;
14377;SDS011;7272;53.668;9.578;2024-01-10T07:57:51;13.10;;;9.67;;
14377;SDS011;7272;53.668;9.578;2024-01-10T08:00:53;11.63;;;9.07;;
14377;SDS011;7272;53.668;9.578;2024-01-10T08:03:55;11.93;;;8.80;;
14377;SDS011;7272;53.668;9.578;2024-01-10T08:06:56;10.60;;;8.37;;
14377;SDS011;7272;53.668;9.578;2024-01-10T08:09:58;11.53;;;8.43;;
14377;SDS011;7272;53.668;9.578;2024-01-10T08:12:59;10.73;;;8.53;;
14377;SDS011;7272;53.668;9.578;2024-01-10T08:16:01;11.43;;;8.27;;
14377;SDS011;7272;53.668;9.578;2024-01-10T08:19:04;15.50;;;8.80;;
14377;SDS011;7272;53.668;9.578;2024-01-10T08:22:05;11.27;;;8.20;;
14377;SDS011;7272;53.668;9.578;2024-01-10T08:25:08;9.20;;;7.83;;
14377;SDS011;7272;53.668;9.578;2024-01-10T08:28:09;11.80;;;9.40;;
14377;SDS011;7272;53.668;9.578;2024-01-10T08:31:11;10.83;;;8.57;;
14377;SDS011;7272;53.668;9.578;2024-01-10T08:34:16;14.53;;;9.33;;
14377;SDS011;7272;53.668;9.578;2024-01-10T08:37:18;11.23;;;9.27;;
14377;SDS011;7272;53.668;9.578;2024-01-10T08:40:20;12.00;;;9.93;;
14377;SDS011;7272;53.668;9.578;2024-01-10T08:43:25;14.00;;;9.97;;
14377;SDS011;7272;53.668;9.578;2024-01-10T08:46:27;11.37;;;8.83;;
14377;SDS011;7272;53.668;9.578;2024-01-10T08:49:28;11.73;;;9.33;;
14377;SDS011;7272;53.668;9.578;2024-01-10T08:52:30;13.07;;;10.87;;
14377;SDS011;7272;53.668;9.578;2024-01-10T08:55:31;12.93;;;9.67;;
14377;SDS011;7272;53.668;9.578;2024-01-10T08:58:32;10.63;;;8.97;;
14377;SDS011;7272;53.668;9.578;2024-01-10T09:01:34;10.87;;;9.03;;
14377;SDS011;7272;53.668;9.578;2024-01-10T09:04:35;9.97;;;8.93;;
14377;SDS011;7272;53.668;9.578;2024-01-10T09:07:36;10.63;;;9.57;;
14377;SDS011;7272;53.668;9.578;2024-01-10T09:10:38;12.33;;;9.20;;
14377;SDS011;7272;53.668;9.578;2024-01-10T09:13:40;9.70;;;8.70;;
14377;SDS011;7272;53.668;9.578;2024-01-10T09:16:42;8.50;;;7.57;;
14377;SDS011;7272;53.668;9.578;2024-01-10T09:19:44;9.30;;;8.30;;
14377;SDS011;7272;53.668;9.578;2024-01-10T09:22:45;9.47;;;7.93;;
14377;SDS011;7272;53.668;9.578;2024-01-10T09:25:46;7.23;;;6.53;;
14377;SDS011;7272;53.668;9.578;2024-01-10T09:28:48;8.03;;;7.07;;
14377;SDS011;7272;53.668;9.578;2024-01-10T09:31:50;7.43;;;6.73;;
14377;SDS011;7272;53.668;9.578;2024-01-10T09:34:51;7.63;;;6.67;;
14377;SDS011;7272;53.668;9.578;2024-01-10T09:37:53;8.57;;;7.27;;
14377;SDS011;7272;53.668;9.578;2024-01-10T09:40:55;9.07;;;7.77;;
14377;SDS011;7272;53.668;9.578;2024-01-10T09:44:01;9.43;;;7.23;;
14377;SDS011;7272;53.668;9.578;2024-01-10T09:47:04;7.77;;;6.97;;
14377;SDS011;7272;53.668;9.578;2024-01-10T09:50:05;7.73;;;6.87;;
14377;SDS011;7272;53.668;9.578;2024-01-10T09:53:07;7.70;;;6.13;;
14377;SDS011;7272;53.668;9.578;2024-01-10T09:56:18;10.23;;;8.23;;
14377;SDS011;7272;53.668;9.578;2024-01-10T09:59:20;8.00;;;7.23;;
14377;SDS011;7272;53.668;9.578;2024-01-10T10:02:22;7.30;;;6.60;;
14377;SDS011;7272;53.668;9.578;2024-01-10T10:05:24;8.23;;;7.47;;
14377;SDS011;7272;53.668;9.578;2024-01-10T10:08:26;6.87;;;6.07;;
14377;SDS011;7272;53.668;9.578;2024-01-10T10:11:27;8.50;;;7.70;;
14377;SDS011;7272;53.668;9.578;2024-01-10T10:14:28;10.07;;;9.07;;
14377;SDS011;7272;53.668;9.578;2024-01-10T10:17:31;8.60;;;7.80;;
14377;SDS011;7272;53.668;9.578;2024-01-10T10:20:32;8.20;;;7.40;;
14377;SDS011;7272;53.668;9.578;2024-01-10T10:23:33;8.07;;;7.27;;
14377;SDS011;7272;53.668;9.578;2024-01-10T10:26:34;7.57;;;6.80;;
14377;SDS011;7272;53.668;9.578;2024-01-10T10:29:36;8.47;;;7.43;;
14377;SDS011;7272;53.668;9.578;2024-01-10T10:32:38;7.93;;;7.23;;
14377;SDS011;7272;53.668;9.578;2024-01-10T10:35:40;8.03;;;7.23;;
14377;SDS011;7272;53.668;9.578;2024-01-10T10:38:41;7.90;;;7.17;;
14377;SDS011;7272;53.668;9.578;2024-01-10T10:41:42;7.47;;;6.77;;
14377;SDS011;7272;53.668;9.578;2024-01-10T10:44:43;8.50;;;7.73;;
14377;SDS011;7272;53.668;9.578;2024-01-10T10:47:47;8.07;;;7.27;;
14377;SDS011;7272;53.668;9.578;2024-01-10T10:50:53;9.13;;;8.23;;
14377;SDS011;7272;53.668;9.578;2024-01-10T10:53:59;7.17;;;6.47;;
14377;SDS011;7272;53.668;9.578;2024-01-10T10:57:01;8.10;;;7.30;;
14377;SDS011;7272;53.668;9.578;2024-01-10T11:00:04;8.77;;;7.03;;
14377;SDS011;7272;53.668;9.578;2024-01-10T11:03:08;7.53;;;6.83;;
14377;SDS011;7272;53.668;9.578;2024-01-10T11:06:11;8.43;;;7.63;;
14377;SDS011;7272;53.668;9.578;2024-01-10T11:09:12;8.00;;;7.20;;
14377;SDS011;7272;53.668;9.578;2024-01-10T11:12:21;7.47;;;6.77;;
14377;SDS011;7272;53.668;9.578;2024-01-10T11:15:38;9.03;;;8.13;;
14377;SDS011;7272;53.668;9.578;2024-01-10T11:18:57;9.10;;;8.20;;
14377;SDS011;7272;53.668;9.578;2024-01-10T11:22:15;9.47;;;7.53;;
14377;SDS011;7272;53.668;9.578;2024-01-10T11:25:26;10.67;;;9.37;;
14377;SDS011;7272;53.668;9.578;2024-01-10T11:28:30;10.10;;;9.10;;
14377;SDS011;7272;53.668;9.578;2024-01-10T11:31:32;9.90;;;9.00;;
14377;SDS011;7272;53.668;9.578;2024-01-10T11:34:34;9.80;;;8.80;;
14377;SDS011;7272;53.668;9.578;2024-01-10T11:37:39;8.80;;;7.87;;
14377;SDS011;7272;53.668;9.578;2024-01-10T11:40:46;9.87;;;8.93;;
14377;SDS011;7272;53.668;9.578;2024-01-10T11:47:29;8.37;;;7.53;;
14377;SDS011;7272;53.668;9.578;2024-01-10T11:50:30;8.57;;;7.77;;
14377;SDS011;7272;53.668;9.578;2024-01-10T11:53:38;9.63;;;8.10;;
14377;SDS011;7272;53.668;9.578;2024-01-10T11:56:41;9.97;;;8.83;;
14377;SDS011;7272;53.668;9.578;2024-01-10T11:59:43;8.23;;;7.53;;
14377;SDS011;7272;53.668;9.578;2024-01-10T12:02:45;9.93;;;8.93;;
14377;SDS011;7272;53.668;9.578;2024-01-10T12:05:48;8.60;;;7.80;;
14377;SDS011;7272;53.668;9.578;2024-01-10T12:08:51;7.73;;;6.93;;
14377;SDS011;7272;53.668;9.578;2024-01-10T12:11:52;8.20;;;7.40;;
14377;SDS011;7272;53.668;9.578;2024-01-10T12:14:53;8.67;;;7.87;;
14377;SDS011;7272;53.668;9.578;2024-01-10T12:17:54;7.97;;;7.17;;
14377;SDS011;7272;53.668;9.578;2024-01-10T12:20:56;8.80;;;7.90;;
14377;SDS011;7272;53.668;9.578;2024-01-10T12:23:58;7.90;;;7.13;;
14377;SDS011;7272;53.668;9.578;2024-01-10T12:26:59;8.73;;;7.83;;
14377;SDS011;7272;53.668;9.578;2024-01-10T12:30:00;8.63;;;7.73;;
14377;SDS011;7272;53.668;9.578;2024-01-10T12:33:03;8.43;;;7.63;;
14377;SDS011;7272;53.668;9.578;2024-01-10T12:36:06;9.67;;;8.00;;
14377;SDS011;7272;53.668;9.578;2024-01-10T12:39:08;7.57;;;6.87;;
14377;SDS011;7272;53.668;9.578;2024-01-10T12:42:10;7.70;;;7.00;;
14377;SDS011;7272;53.668;9.578;2024-01-10T12:45:20;7.77;;;7.00;;
14377;SDS011;7272;53.668;9.578;2024-01-10T12:48:21;8.33;;;7.43;;
14377;SDS011;7272;53.668;9.578;2024-01-10T12:51:23;8.13;;;7.30;;
14377;SDS011;7272;53.668;9.578;2024-01-10T12:54:25;8.43;;;7.63;;
14377;SDS011;7272;53.668;9.578;2024-01-10T12:57:26;7.73;;;6.93;;
14377;SDS011;7272;53.668;9.578;2024-01-10T13:00:27;7.13;;;6.50;;
14377;SDS011;7272;53.668;9.578;2024-01-10T13:03:29;7.10;;;6.40;;
14377;SDS011;7272;53.668;9.578;2024-01-10T13:06:31;8.37;;;7.47;;
14377;SDS011;7272;53.668;9.578;2024-01-10T13:09:32;7.67;;;6.90;;
14377;SDS011;7272;53.668;9.578;2024-01-10T13:12:33;8.40;;;7.50;;
14377;SDS011;7272;53.668;9.578;2024-01-10T13:15:34;8.83;;;7.90;;
14377;SDS011;7272;53.668;9.578;2024-01-10T13:18:36;8.63;;;7.80;;
14377;SDS011;7272;53.668;9.578;2024-01-10T13:21:38;8.63;;;7.77;;
14377;SDS011;7272;53.668;9.578;2024-01-10T13:24:40;8.93;;;7.87;;
14377;SDS011;7272;53.668;9.578;2024-01-10T13:27:42;7.80;;;7.00;;
14377;SDS011;7272;53.668;9.578;2024-01-10T13:30:43;8.30;;;7.50;;
14377;SDS011;7272;53.668;9.578;2024-01-10T13:33:44;8.80;;;7.90;;
14377;SDS011;7272;53.668;9.578;2024-01-10T13:36:46;9.83;;;8.80;;
14377;SDS011;7272;53.668;9.578;2024-01-10T13:39:47;8.93;;;7.60;;
14377;SDS011;7272;53.668;9.578;2024-01-10T13:42:49;9.50;;;8.53;;
14377;SDS011;7272;53.668;9.578;2024-01-10T13:45:50;9.60;;;8.60;;
14377;SDS011;7272;53.668;9.578;2024-01-10T13:48:52;8.57;;;7.73;;
14377;SDS011;7272;53.668;9.578;2024-01-10T13:51:54;9.07;;;7.90;;
14377;SDS011;7272;53.668;9.578;2024-01-10T13:54:55;7.57;;;6.87;;
14377;SDS011;7272;53.668;9.578;2024-01-10T13:57:57;8.67;;;7.80;;
14377;SDS011;7272;53.668;9.578;2024-01-10T14:00:58;8.50;;;7.60;;
14377;SDS011;7272;53.668;9.578;2024-01-10T14:03:59;8.67;;;7.80;;
14377;SDS011;7272;53.668;9.578;2024-01-10T14:07:01;7.67;;;6.40;;
14377;SDS011;7272;53.668;9.578;2024-01-10T14:10:04;7.77;;;6.90;;
14377;SDS011;7272;53.668;9.578;2024-01-10T14:13:06;7.77;;;6.97;;
14377;SDS011;7272;53.668;9.578;2024-01-10T14:16:07;8.17;;;7.40;;
14377;SDS011;7272;53.668;9.578;2024-01-10T14:19:11;9.17;;;8.27;;
14377;SDS011;7272;53.668;9.578;2024-01-10T14:22:13;9.07;;;7.70;;
14377;SDS011;7272;53.668;9.578;2024-01-10T14:25:14;7.67;;;6.97;;
14377;SDS011;7272;53.668;9.578;2024-01-10T14:28:15;8.80;;;7.90;;
14377;SDS011;7272;53.668;9.578;2024-01-10T14:31:17;8.87;;;7.97;;
14377;SDS011;7272;53.668;9.578;2024-01-10T14:34:19;12.70;;;9.87;;
14377;SDS011;7272;53.668;9.578;2024-01-10T14:37:21;10.17;;;8.67;;
14377;SDS011;7272;53.668;9.578;2024-01-10T14:40:22;9.50;;;8.57;;
14377;SDS011;7272;53.668;9.578;2024-01-10T14:43:24;10.97;;;9.70;;
14377;SDS011;7272;53.668;9.578;2024-01-10T14:46:25;10.17;;;8.83;;
14377;SDS011;7272;53.668;9.578;2024-01-10T14:49:28;9.10;;;8.20;;
14377;SDS011;7272;53.668;9.578;2024-01-10T14:52:31;9.50;;;8.17;;
14377;SDS011;7272;53.668;9.578;2024-01-10T14:55:32;11.83;;;10.57;;
14377;SDS011;7272;53.668;9.578;2024-01-10T14:58:33;9.63;;;8.27;;
14377;SDS011;7272;53.668;9.578;2024-01-10T15:01:35;8.57;;;7.67;;
14377;SDS011;7272;53.668;9.578;2024-01-10T15:04:36;8.60;;;7.33;;
14377;SDS011;7272;53.668;9.578;2024-01-10T15:07:39;8.53;;;7.63;;
14377;SDS011;7272;53.668;9.578;2024-01-10T15:10:40;10.90;;;9.80;;
14377;SDS011;7272;53.668;9.578;2024-01-10T15:13:43;10.50;;;9.40;;
14377;SDS011;7272;53.668;9.578;2024-01-10T15:16:44;10.53;;;9.53;;
14377;SDS011;7272;53.668;9.578;2024-01-10T15:19:45;11.60;;;10.37;;
14377;SDS011;7272;53.668;9.578;2024-01-10T15:22:47;10.93;;;9.83;;
14377;SDS011;7272;53.668;9.578;2024-01-10T15:25:48;12.73;;;11.13;;
14377;SDS011;7272;53.668;9.578;2024-01-10T15:28:49;9.40;;;8.40;;
14377;SDS011;7272;53.668;9.578;2024-01-10T15:31:51;13.23;;;11.57;;
14377;SDS011;7272;53.668;9.578;2024-01-10T15:34:52;13.00;;;10.57;;
14377;SDS011;7272;53.668;9.578;2024-01-10T15:37:54;11.93;;;10.57;;
14377;SDS011;7272;53.668;9.578;2024-01-10T15:40:55;13.27;;;11.27;;
14377;SDS011;7272;53.668;9.578;2024-01-10T15:43:57;13.70;;;11.60;;
14377;SDS011;7272;53.668;9.578;2024-01-10T15:46:58;12.00;;;10.30;;
14377;SDS011;7272;53.668;9.578;2024-01-10T15:49:59;14.43;;;12.30;;
14377;SDS011;7272;53.668;9.578;2024-01-10T15:53:01;14.20;;;11.20;;
14377;SDS011;7272;53.668;9.578;2024-01-10T15:56:03;14.93;;;13.10;;
14377;SDS011;7272;53.668;9.578;2024-01-10T15:59:05;13.07;;;11.73;;
14377;SDS011;7272;53.668;9.578;2024-01-10T16:02:07;11.00;;;9.53;;
14377;SDS011;7272;53.668;9.578;2024-01-10T16:05:08;13.93;;;11.70;;
14377;SDS011;7272;53.668;9.578;2024-01-10T16:08:10;12.37;;;10.90;;
14377;SDS011;7272;53.668;9.578;2024-01-10T16:11:12;14.40;;;12.27;;
14377;SDS011;7272;53.668;9.578;2024-01-10T16:14:13;13.00;;;11.17;;
14377;SDS011;7272;53.668;9.578;2024-01-10T16:17:14;12.60;;;11.30;;
14377;SDS011;7272;53.668;9.578;2024-01-10T16:20:15;10.53;;;9.43;;
14377;SDS011;7272;53.668;9.578;2024-01-10T16:23:17;15.40;;;13.47;;
14377;SDS011;7272;53.668;9.578;2024-01-10T16:26:18;12.00;;;10.37;;
14377;SDS011;7272;53.668;9.578;2024-01-10T16:29:19;11.27;;;10.07;;
14377;SDS011;7272;53.668;9.578;2024-01-10T16:32:21;12.13;;;10.80;;
14377;SDS011;7272;53.668;9.578;2024-01-10T16:35:24;15.17;;;13.57;;
14377;SDS011;7272;53.668;9.578;2024-01-10T16:38:26;14.80;;;13.30;;
14377;SDS011;7272;53.668;9.578;2024-01-10T16:41:27;12.50;;;11.20;;
14377;SDS011;7272;53.668;9.578;2024-01-10T16:44:28;11.63;;;10.43;;
14377;SDS011;7272;53.668;9.578;2024-01-10T16:47:30;12.00;;;10.43;;
14377;SDS011;7272;53.668;9.578;2024-01-10T16:50:31;12.53;;;11.27;;
14377;SDS011;7272;53.668;9.578;2024-01-10T16:53:33;17.10;;;13.93;;
14377;SDS011;7272;53.668;9.578;2024-01-10T16:56:34;13.83;;;10.77;;
14377;SDS011;7272;53.668;9.578;2024-01-10T16:59:35;11.20;;;10.00;;
14377;SDS011;7272;53.668;9.578;2024-01-10T17:02:37;14.43;;;12.80;;
14377;SDS011;7272;53.668;9.578;2024-01-10T17:05:38;17.13;;;13.60;;
14377;SDS011;7272;53.668;9.578;2024-01-10T17:08:40;14.13;;;12.10;;
14377;SDS011;7272;53.668;9.578;2024-01-10T17:11:43;15.17;;;13.53;;
14377;SDS011;7272;53.668;9.578;2024-01-10T17:14:44;15.97;;;13.40;;
14377;SDS011;7272;53.668;9.578;2024-01-10T17:17:45;15.13;;;13.50;;
14377;SDS011;7272;53.668;9.578;2024-01-10T17:20:46;14.60;;;13.03;;
14377;SDS011;7272;53.668;9.578;2024-01-10T17:23:48;14.90;;;13.30;;
14377;SDS011;7272;53.668;9.578;2024-01-10T17:26:49;13.50;;;11.83;;
14377;SDS011;7272;53.668;9.578;2024-01-10T17:29:51;16.50;;;14.13;;
14377;SDS011;7272;53.668;9.578;2024-01-10T17:32:52;15.60;;;12.97;;
14377;SDS011;7272;53.668;9.578;2024-01-10T17:35:53;14.33;;;12.83;;
14377;SDS011;7272;53.668;9.578;2024-01-10T17:38:55;17.40;;;14.70;;
14377;SDS011;7272;53.668;9.578;2024-01-10T17:41:56;19.00;;;15.90;;
14377;SDS011;7272;53.668;9.578;2024-01-10T17:44:57;15.27;;;12.87;;
14377;SDS011;7272;53.668;9.578;2024-01-10T17:47:58;14.83;;;13.10;;
14377;SDS011;7272;53.668;9.578;2024-01-10T17:51:00;20.53;;;15.50;;
14377;SDS011;7272;53.668;9.578;2024-01-10T17:54:02;16.90;;;14.23;;
14377;SDS011;7272;53.668;9.578;2024-01-10T17:57:04;14.40;;;12.70;;
14377;SDS011;7272;53.668;9.578;2024-01-10T18:00:06;15.63;;;12.63;;
14377;SDS011;7272;53.668;9.578;2024-01-10T18:03:12;15.07;;;13.47;;
14377;SDS011;7272;53.668;9.578;2024-01-10T18:06:14;16.90;;;14.13;;
14377;SDS011;7272;53.668;9.578;2024-01-10T18:09:16;17.93;;;14.07;;
14377;SDS011;7272;53.668;9.578;2024-01-10T18:12:17;16.27;;;13.70;;
14377;SDS011;7272;53.668;9.578;2024-01-10T18:15:18;16.90;;;14.10;;
14377;SDS011;7272;53.668;9.578;2024-01-10T18:18:19;14.50;;;12.63;;
14377;SDS011;7272;53.668;9.578;2024-01-10T18:21:21;17.63;;;14.03;;